METAR Data
IDs: Format: Raw Decoded Include TAF

Data at: 1241 UTC 16 Oct 2018

PAKH 161229Z AUTO 15007KT 3SM RA BR FEW007 BKN022 OVC041 09/08 A2924 RMK AO2 RAB00 P0011 $
PAKH 161156Z AUTO 16010KT 10SM FEW024 BKN033 OVC045 10/08 A2924 RMK AO2 SLP901 70069 T01000083 10100 20094 51002 $
PAKH 161134Z AUTO 15010KT 10SM SCT015 SCT024 OVC045 10/08 A2924 RMK AO2 $
PAKH 161123Z AUTO 15012KT 10SM BKN017 OVC047 10/08 A2924 RMK AO2 $
PAKH 161056Z AUTO 15009KT 9SM BKN047 OVC055 10/09 A2924 RMK AO2 SLP901 T01000089 $
PAKH 161031Z AUTO 16010KT 10SM SCT016 OVC050 10/09 A2924 RMK AO2 $
PAKH 161022Z AUTO 15007KT 10SM BKN016 BKN020 OVC050 10/09 A2924 RMK AO2 $
PAKH 161009Z AUTO 15008KT 10SM FEW016 BKN040 OVC050 10/09 A2924 RMK AO2 $
PAKH 160956Z AUTO 13004KT 10SM BKN017 BKN022 OVC042 09/08 A2923 RMK AO2 SLP901 T00940083 $
PAKH 160928Z AUTO 14006KT 10SM SCT018 BKN022 OVC038 10/09 A2923 RMK AO2 $
PAKH 160856Z AUTO 15006KT 10SM SCT020 BKN038 09/09 A2923 RMK AO2 SLP899 T00940089 401220094 53008 $
PAKH 160756Z AUTO 15009KT 10SM SCT014 BKN049 10/09 A2922 RMK AO2 SLP895 T01000089 $
PAKH 160742Z AUTO 15009KT 10SM BKN014 OVC026 10/09 A2921 RMK AO2 $
PAKH 160711Z AUTO 15007KT 10SM FEW016 SCT031 OVC050 10/09 A2921 RMK AO2 $
PAKH 160656Z AUTO 14007KT 10SM SCT016 BKN024 OVC050 10/09 A2921 RMK AO2 SLP892 T01000089 $
PAKH 160641Z AUTO 13004KT 9SM SCT024 BKN029 OVC037 10/09 A2921 RMK AO2 $
PAKH 160611Z AUTO 13005KT 9SM FEW020 SCT025 OVC035 10/09 A2921 RMK AO2 $
PAKH 160556Z AUTO 15008KT 9SM FEW021 BKN027 OVC037 10/09 A2921 RMK AO2 SLP891 60001 T01000094 10117 20100 53005 $
PAKH 160456Z AUTO 16009KT 10SM FEW033 BKN100 11/09 A2920 RMK AO2 SLP890 T01060089 $
PAKH 160404Z AUTO 16012KT 9SM FEW010 SCT022 BKN037 11/09 A2919 RMK AO2 $
PAKH 160356Z AUTO 16012KT 8SM SCT010 BKN022 BKN037 11/09 A2919 RMK AO2 RAB11E23 SLP886 P0000 T01060094 $
PAKH 160328Z AUTO 15015KT 8SM BKN010 BKN016 OVC021 11/10 A2919 RMK AO2 RAB11E23 CIG 008V013 P0000 $
PAKH 160256Z AUTO 13008KT 6SM BR SCT021 BKN027 OVC046 11/10 A2919 RMK AO2 SLP886 60001 T01110100 56006 $
PAKH 160219Z AUTO 15011KT 10SM SCT021 OVC041 11/09 A2919 RMK AO2 $
PAKH 160156Z AUTO 15012KT 9SM FEW010 BKN021 OVC027 11/10 A2920 RMK AO2 RAE18 SLP887 P0001 T01110100 $
PAKH 160056Z AUTO 13012G20KT 5SM -RA BR BKN012 BKN020 OVC041 12/10 A2921 RMK AO2 RAB54 SLP892 P0000 T01170100 $
PAKH 160032Z AUTO 12014KT 9SM OVC014 12/10 A2921 RMK AO2 $
PAKH 160007Z AUTO 13013KT 10SM BKN016 OVC022 12/10 A2922 RMK AO2 $
PAKH 152356Z AUTO 12011KT 10SM BKN014 OVC043 12/10 A2922 RMK AO2 SLP895 60001 T01170100 10122 20111 58013 $
PAKH 152256Z AUTO 13011KT 10SM OVC014 12/10 A2924 RMK AO2 SLP904 T01170100 $
PAKH 152237Z AUTO 13012G18KT 10SM BKN014 BKN019 OVC024 12/09 A2925 RMK AO2 $
PAKH 152156Z AUTO 13012KT 10SM FEW013 BKN027 BKN033 12/10 A2925 RMK AO2 SLP907 T01170100 $
PAKH 152007Z AUTO 15008KT 9SM BKN013 BKN020 12/10 A2926 RMK AO2 $
PAKH 151956Z AUTO 15007KT 9SM OVC016 12/10 A2926 RMK AO2 SLP911 T01220100 $
PAKH 151941Z AUTO 15008KT 9SM FEW008 BKN016 12/11 A2926 RMK AO2 $
PAKH 151932Z AUTO 15010KT 9SM FEW008 BKN014 12/11 A2926 RMK AO2 $
PAKH 151915Z AUTO 15008KT 8SM SCT008 SCT012 12/11 A2926 RMK AO2 $
PAKH 151856Z AUTO 15011KT 10SM SCT008 BKN012 OVC034 11/11 A2926 RMK AO2 RAE24 SLP909 P0001 T01110106 $
PAKH 151803Z AUTO 15010KT 10SM -RA FEW007 OVC070 11/11 A2925 RMK AO2 P0000 $
PAKH 151756Z AUTO 15011KT 10SM -RA OVC065 11/11 A2925 RMK AO2 SLP907 P0001 60067 T01110106 10117 20106 55003 $
PAKH 151743Z AUTO 15010KT 10SM -RA FEW006 OVC065 11/11 A2925 RMK AO2 P0001 $
PAKH 151733Z AUTO 15012KT 9SM -RA FEW006 BKN024 OVC065 11/11 A2925 RMK AO2 P0001 $
PAKH 151715Z AUTO 15012KT 10SM -RA SCT006 BKN013 OVC060 11/11 A2925 RMK AO2 P0000 $
PAKH 151656Z AUTO 18009KT 6SM -RA BR OVC006 11/11 A2925 RMK AO2 PK WND 12026/1607 WSHFT 1616 CIG 004V009 SLP906 P0031 T01110106 $
PAKH 151633Z AUTO 17012KT 3SM RA BR BKN004 BKN010 OVC017 11/11 A2926 RMK AO2 PK WND 12026/1607 WSHFT 1616 CIG 003V008 P0019 $
PAKH 151625Z AUTO 17013KT 2 1/2SM +RA BR SCT006 BKN012 OVC017 11/11 A2926 RMK AO2 PK WND 12026/1607 P0013 $
PAKH 151622Z AUTO 15017KT 4SM +RA BR SCT009 OVC015 11/11 A2926 RMK AO2 PK WND 12026/1607 P0009 $
PAKH 151556Z AUTO 11016G19KT 3SM +RA BR BKN011 OVC020 11/11 A2926 RMK AO2 SLP909 P0016 T01110106 $
PAKH 151552Z AUTO 12015G23KT 3SM RA BR BKN011 OVC018 11/11 A2926 RMK AO2 P0014 $
PAKH 151545Z AUTO 12017G23KT 3SM RA BR OVC009 11/11 A2926 RMK AO2 CIG 008V013 P0010 $
PAKH 151543Z AUTO 11013G21KT 2 1/2SM RA BR BKN011 OVC016 11/11 A2926 RMK AO2 CIG 008V012 P0009 $
PAKH 151456Z AUTO 12019G25KT 6SM -RA BR OVC011 11/10 A2928 RMK AO2 PK WND 12028/1437 SLP916 P0004 60019 T01110100 56022 $
PAKH 151431Z AUTO 10016G23KT 3SM -RA BR BKN011 OVC017 11/10 A2928 RMK AO2 PK WND 11026/1401 P0004 $
PAKH 151356Z AUTO 11021G26KT 5SM RA BR BKN019 BKN024 OVC032 11/09 A2929 RMK AO2 PK WND 10026/1356 SLP920 P0010 T01110094 $
PAKH 151314Z AUTO 11019G26KT 5SM -RA BR SCT017 BKN023 OVC045 11/10 A2932 RMK AO2 PK WND 11026/1314 P0003 $
PAKH 151256Z AUTO 10016G25KT 4SM -RA BR FEW012 SCT019 OVC043 11/10 A2932 RMK AO2 PK WND 12028/1219 RAB06 SLP930 P0005 T01110100 $
PAKH 151244Z AUTO 11021G26KT 6SM RA BR FEW014 BKN019 OVC055 11/10 A2933 RMK AO2 PK WND 12028/1219 RAB06 P0003 $
PAKH 151237Z AUTO 11021G26KT 7SM -RA BKN014 BKN019 OVC035 11/10 A2935 RMK AO2 PK WND 12028/1219 RAB06 P0001 $
PAKH 151156Z AUTO 10019G25KT 10SM OVC019 12/09 A2934 RMK AO2 SLP938 60000 T01170094 10117 20111 58022 $
PAKH 151056Z AUTO 11019G25KT 10SM BKN015 OVC022 12/09 A2938 RMK AO2 PK WND 12028/1014 SLP949 T01170094 $
PAKH 151026Z AUTO 11020G26KT 10SM FEW017 BKN022 OVC075 12/09 A2939 RMK AO2 PK WND 12028/1014 $
PAKH 151016Z AUTO 11019G28KT 10SM FEW017 BKN030 OVC080 12/09 A2939 RMK AO2 PK WND 12028/1014 $
PAKH 151009Z AUTO 11018G24KT 10SM FEW017 BKN024 OVC080 12/09 A2939 RMK AO2 $
PAKH 150956Z AUTO 11017G25KT 10SM FEW020 OVC085 12/09 A2940 RMK AO2 PK WND 12028/0945 SLP956 T01170094 $
PAKH 150939Z AUTO 10016G25KT 10SM SCT016 OVC085 12/09 A2940 RMK AO2 PK WND 11028/0928 $
PAKH 150921Z AUTO 11019G25KT 10SM BKN016 BKN030 OVC090 12/09 A2941 RMK AO2 $
PAKH 150856Z AUTO 11017G27KT 10SM FEW018 SCT030 OVC090 12/09 A2941 RMK AO2 PK WND 12028/0805 RAB16E51 SLP960 P0000 60000 T01170094 401220089 58013 $
PAKH 150834Z AUTO 10013G18KT 10SM -RA SCT013 BKN060 OVC080 11/10 A2941 RMK AO2 PK WND 12028/0805 RAB16 P0000 $
PAKH 150756Z AUTO 12018G25KT 10SM BKN011 OVC085 11/10 A2944 RMK AO2 PK WND 12029/0742 SLP970 T01110100 $
PAKH 150716Z AUTO 12018G25KT 10SM OVC009 11/10 A2944 RMK AO2 CIG 007V013 $
PAKH 150656Z AUTO 11018G24KT 10SM FEW008 OVC011 11/10 A2944 RMK AO2 PK WND 12028/0613 RAE28 SLP971 P0000 T01110100 $
PAKH 150633Z AUTO 12016G23KT 10SM BKN009 OVC013 11/10 A2945 RMK AO2 PK WND 12028/0613 RAE28 CIG 007V011 P0000 $
PAKH 150556Z AUTO 12018G25KT 10SM -RA BKN013 BKN020 OVC028 11/10 A2945 RMK AO2 PK WND 12026/0535 RAB01E12B39 SLP974 P0000 60000 T01110100 10122 20106 58009 $
PAKH 150456Z AUTO 11016G22KT 10SM BKN016 12/09 A2946 RMK AO2 RAB43E54 SLP976 P0000 T01170094 $
PAKH 150404Z AUTO 10014KT 10SM BKN025 OVC033 11/09 A2947 RMK AO2 $
PAKH 150356Z AUTO 10014G18KT 10SM FEW025 BKN030 OVC037 11/09 A2947 RMK AO2 SLP982 T01110089 $
PAKH 150308Z AUTO 11014G21KT 10SM SCT012 BKN030 OVC038 11/09 A2948 RMK AO2 $
PAKH 150256Z AUTO 11015G23KT 10SM SCT008 BKN012 OVC028 11/09 A2948 RMK AO2 SLP983 60000 T01060094 58010 $
PAKH 150156Z AUTO 12015KT 10SM OVC008 11/10 A2949 RMK AO2 RAB18E30 CIG 005V010 SLP988 P0000 T01060100 $
PAKH 150120Z AUTO 12014G21KT 4SM -RA BR SCT005 BKN008 OVC015 11/10 A2949 RMK AO2 RAB18 CIG 008V012 P0000 $
PAKH 150056Z AUTO 11013KT 10SM BKN010 OVC015 11/10 A2949 RMK AO2 CIG 009V014 SLP989 T01110100 $